Navios Pollux — 3FPO2 — position and weather

sailwx.info

Track history (hours):
 
Tides and Currents Weather Stations Pressure Air Temp Water Temp Dewpoint Dewpoint Depression Visibility Wind Speed Wind Dir Waves Ship Positions

Navios Pollux

Last reported at 2015-May-27 02:17 UTC. Time now 2015-May-29 20:22 UTC.
Position N 47°04' W 018°33'.

Length 292 m; draft 11.6 m.

Type: Cargo ship. MMSI: 370290000.

Date/timePositionNaut miles runAvg speedWind from/ knotsBaromVisibWave heightAir tempDewpointWater temp
2015-May-27 02:17N 47°04' W 018°33'910.0
2015-May-27 01:21N 47°06' W 018°20'3810.1
2015-May-26 21:33N 47°18' W 017°26'1010.4
2015-May-26 20:33N 47°21' W 017°12'2110.2
2015-May-26 18:29N 47°27' W 016°42'396 9.9
2015-May-25 02:30N 48°56' W 007°03'16410.0
2015-May-24 10:10N 49°56' W 003°09'9 9.4
2015-May-24 09:15N 49°59' W 002°56'1010.1
2015-May-24 08:14N 50°02' W 002°41'811.1
2015-May-24 07:31N 50°04' W 002°29'1212.2
2015-May-24 06:33N 50°07' W 002°12'2612.8
2015-May-24 04:33N 50°14' W 001°33'1211.8
2015-May-24 03:33N 50°17' W 001°15'1110.5
2015-May-24 02:31N 50°20' W 000°59'9 9.0
2015-May-24 01:33N 50°23' W 000°46'8 8.0
2015-May-24 00:33N 50°25' W 000°34'8 8.4
2015-May-23 23:33N 50°27' W 000°21'9 9.2
2015-May-23 22:33N 50°29' W 000°07'1010.2
2015-May-23 21:33N 50°32' E 000°08'1111.2
2015-May-23 20:33N 50°35' E 000°25'1111.4
2015-May-23 19:33N 50°40' E 000°41'1111.4
2015-May-23 18:33N 50°47' E 000°55'1110.6
2015-May-23 17:33N 50°54' E 001°08'9 9.5
2015-May-23 16:34N 51°00' E 001°19'9 8.7
2015-May-23 15:33N 51°06' E 001°30'9 9.4
2015-May-23 14:33N 51°12' E 001°42'1010.4
2015-May-23 13:33N 51°20' E 001°52'1212.1
2015-May-23 12:33N 51°30' E 002°02'1212.3
2015-May-23 11:33N 51°39' E 002°16'1312.4
2015-May-23 10:32N 51°48' E 002°30'1211.7
2015-May-23 09:31N 51°57' E 002°43'1110.3
2015-May-23 08:28N 52°02' E 002°58'1110.7
2015-May-23 07:26N 52°03' E 003°16'1110.1
2015-May-23 06:22N 52°04' E 003°34'810.0
2015-May-23 05:33N 52°03' E 003°47'9 8.6
2015-May-23 04:33N 52°00' E 004°00'5 4.6
2015-May-23 03:33N 51°56' E 004°04'0 0.4
2015-May-23 02:33N 51°56' E 004°03'0 0.0
2015-May-23 01:33N 51°56' E 004°03'0 0.0
2015-May-23 00:33N 51°56' E 004°03'0 0.0
2015-May-22 23:33N 51°56' E 004°03'0 0.0
2015-May-22 22:33N 51°56' E 004°03'0 0.0
2015-May-22 21:33N 51°56' E 004°03'0 0.0
2015-May-22 20:33N 51°56' E 004°03'0 0.0
2015-May-22 19:33N 51°56' E 004°03'0 0.0
2015-May-22 18:33N 51°56' E 004°03'0 0.0
2015-May-22 17:33N 51°56' E 004°03'0 0.0
2015-May-22 16:33N 51°56' E 004°03'0 0.0
2015-May-22 15:33N 51°56' E 004°03'0 0.0
2015-May-22 14:33N 51°56' E 004°03'0 0.0
2015-May-22 13:33N 51°56' E 004°03'0 0.0
2015-May-22 12:33N 51°56' E 004°03'0 0.0
2015-May-22 11:33N 51°56' E 004°03'0 0.0
2015-May-22 10:33N 51°56' E 004°03'0 0.0
2015-May-22 09:33N 51°56' E 004°03'0 0.0
2015-May-22 08:33N 51°56' E 004°03'0 0.0
2015-May-22 07:33N 51°56' E 004°03'0 0.0
2015-May-22 06:33N 51°56' E 004°03'0 0.0
2015-May-22 05:33N 51°56' E 004°03'0 0.0
2015-May-22 04:33N 51°56' E 004°03'0 0.0
2015-May-22 03:33N 51°56' E 004°03'0 0.0
2015-May-22 02:33N 51°56' E 004°03'0 0.0
2015-May-22 01:33N 51°56' E 004°03'0 0.0
2015-May-22 00:33N 51°56' E 004°03'0 0.0
2015-May-21 23:33N 51°56' E 004°03'0 0.0
2015-May-21 22:33N 51°56' E 004°03'0 0.0
2015-May-21 21:33N 51°56' E 004°03'0 0.0
2015-May-21 20:33N 51°56' E 004°03'0 0.0
2015-May-21 19:33N 51°56' E 004°03'0 0.0
2015-May-21 18:33N 51°56' E 004°03'0 0.0
2015-May-21 17:33N 51°56' E 004°03'0 0.0
2015-May-21 16:33N 51°56' E 004°03'0 0.0
2015-May-21 15:33N 51°56' E 004°03'0 0.0
2015-May-21 14:30N 51°56' E 004°03'0 0.0
2015-May-21 13:33N 51°56' E 004°03'0 0.0
2015-May-21 12:33N 51°56' E 004°03'0 0.0
2015-May-21 11:33N 51°56' E 004°03'0 0.0
2015-May-21 10:33N 51°56' E 004°03'0 0.0
2015-May-21 09:33N 51°56' E 004°03'0 0.0
2015-May-21 08:33N 51°56' E 004°03'0 0.0
2015-May-21 07:33N 51°56' E 004°04'0 0.0
2015-May-21 06:33N 51°56' E 004°03'0 0.0
2015-May-21 05:33N 51°56' E 004°03'0 0.0
2015-May-21 04:33N 51°56' E 004°03'0 0.0
2015-May-21 03:33N 51°56' E 004°03'0 0.0
2015-May-21 02:33N 51°56' E 004°03'0 0.0
2015-May-21 01:33N 51°56' E 004°03'0 0.0
2015-May-21 00:33N 51°56' E 004°03'0 0.0
2015-May-20 23:33N 51°56' E 004°03'0 0.0
2015-May-20 22:33N 51°56' E 004°03'0 0.0
2015-May-20 21:33N 51°56' E 004°03'0 0.0
2015-May-20 20:33N 51°56' E 004°03'0 0.0
2015-May-20 19:33N 51°56' E 004°03'0 0.0
2015-May-20 18:30N 51°56' E 004°03'0 0.0
2015-May-20 17:33N 51°56' E 004°03'0 0.0
2015-May-20 16:33N 51°56' E 004°04'0 0.0
2015-May-20 11:31N 51°56' E 004°03'0 0.0
2015-May-20 10:31N 51°56' E 004°03'0 0.0
2015-May-20 09:31N 51°56' E 004°03'0 0.0
2015-May-20 08:31N 51°56' E 004°03'0 0.0
2015-May-20 07:31N 51°56' E 004°03'0 0.0
2015-May-20 06:31N 51°56' E 004°04'0 0.0
2015-May-20 05:31N 51°56' E 004°03'0 0.0
2015-May-20 04:31N 51°56' E 004°03'0 0.0
2015-May-20 03:31N 51°56' E 004°03'0 0.0
2015-May-20 02:31N 51°56' E 004°03'0 0.0
2015-May-20 01:31N 51°56' E 004°03'0 0.0
2015-May-20 00:31N 51°56' E 004°03'0 0.0
2015-May-19 23:31N 51°56' E 004°03'0 0.0
2015-May-19 22:31N 51°56' E 004°03'0 0.0
2015-May-19 21:31N 51°56' E 004°03'0 0.0
2015-May-19 20:31N 51°56' E 004°03'0 0.0
2015-May-19 19:31N 51°56' E 004°03'0 0.0
2015-May-19 18:31N 51°56' E 004°03'0 0.0
2015-May-19 17:31N 51°56' E 004°03'0 0.0
2015-May-19 16:31N 51°56' E 004°03'0 0.0
2015-May-19 15:31N 51°56' E 004°03'0 0.0
2015-May-19 14:31N 51°56' E 004°03'0 0.0
2015-May-19 13:28N 51°56' E 004°03'0 0.0
2015-May-19 12:31N 51°56' E 004°03'0 0.0
2015-May-19 11:31N 51°56' E 004°03'0 0.0
2015-May-19 10:31N 51°56' E 004°03'0 0.0
2015-May-19 09:31N 51°56' E 004°03'0 0.0
2015-May-19 08:31N 51°56' E 004°03'2 2.4
2015-May-19 07:33N 51°58' E 004°05'7 7.0
2015-May-19 06:33N 52°01' E 003°55'9 8.7
2015-May-19 05:33N 52°01' E 003°41'1110.0
2015-May-19 04:28N 51°59' E 003°23'40 2.1
2015-May-18 09:33N 51°40' E 002°27'8 7.5
2015-May-18 08:33N 51°34' E 002°19'8 7.1
2015-May-18 07:29N 51°29' E 002°11'7 7.5
2015-May-18 06:33N 51°24' E 002°03'8 7.9
2015-May-18 05:33N 51°18' E 001°55'9 8.5
2015-May-18 04:33N 51°11' E 001°46'9 9.2
2015-May-18 03:33N 51°03' E 001°39'1010.1
2015-May-18 02:33N 50°55' E 001°29'1010.4
2015-May-18 01:33N 50°45' E 001°23'11 9.7
2015-May-18 00:28N 50°37' E 001°13'3310.0
2015-May-17 21:12N 50°24' E 000°26'6810.0
2015-May-17 14:25N 50°06' W 001°17'6 5.6
2015-May-17 13:22N 50°05' W 001°26'  
Track history (hours):
 
Tides and Currents Weather Stations Pressure Air Temp Water Temp Dewpoint Dewpoint Depression Visibility Wind Speed Wind Dir Waves Ship Positions

Navios Pollux

Last reported at 2015-May-27 02:17 UTC. Time now 2015-May-29 20:22 UTC.
Position N 47°04' W 018°33'.

Length 292 m; draft 11.6 m.

Type: Cargo ship. MMSI: 370290000.

Date/timePositionNaut miles runAvg speedWind from/ knotsBaromVisibWave heightAir tempDewpointWater temp
2015-May-27 02:17N 47°04' W 018°33'910.0
2015-May-27 01:21N 47°06' W 018°20'3810.1
2015-May-26 21:33N 47°18' W 017°26'1010.4
2015-May-26 20:33N 47°21' W 017°12'2110.2
2015-May-26 18:29N 47°27' W 016°42'396 9.9
2015-May-25 02:30N 48°56' W 007°03'16410.0
2015-May-24 10:10N 49°56' W 003°09'9 9.4
2015-May-24 09:15N 49°59' W 002°56'1010.1
2015-May-24 08:14N 50°02' W 002°41'811.1
2015-May-24 07:31N 50°04' W 002°29'1212.2
2015-May-24 06:33N 50°07' W 002°12'2612.8
2015-May-24 04:33N 50°14' W 001°33'1211.8
2015-May-24 03:33N 50°17' W 001°15'1110.5
2015-May-24 02:31N 50°20' W 000°59'9 9.0
2015-May-24 01:33N 50°23' W 000°46'8 8.0
2015-May-24 00:33N 50°25' W 000°34'8 8.4
2015-May-23 23:33N 50°27' W 000°21'9 9.2
2015-May-23 22:33N 50°29' W 000°07'1010.2
2015-May-23 21:33N 50°32' E 000°08'1111.2
2015-May-23 20:33N 50°35' E 000°25'1111.4
2015-May-23 19:33N 50°40' E 000°41'1111.4
2015-May-23 18:33N 50°47' E 000°55'1110.6
2015-May-23 17:33N 50°54' E 001°08'9 9.5
2015-May-23 16:34N 51°00' E 001°19'9 8.7
2015-May-23 15:33N 51°06' E 001°30'9 9.4
2015-May-23 14:33N 51°12' E 001°42'1010.4
2015-May-23 13:33N 51°20' E 001°52'1212.1
2015-May-23 12:33N 51°30' E 002°02'1212.3
2015-May-23 11:33N 51°39' E 002°16'1312.4
2015-May-23 10:32N 51°48' E 002°30'1211.7
2015-May-23 09:31N 51°57' E 002°43'1110.3
2015-May-23 08:28N 52°02' E 002°58'1110.7
2015-May-23 07:26N 52°03' E 003°16'1110.1
2015-May-23 06:22N 52°04' E 003°34'810.0
2015-May-23 05:33N 52°03' E 003°47'9 8.6
2015-May-23 04:33N 52°00' E 004°00'5 4.6
2015-May-23 03:33N 51°56' E 004°04'0 0.4
2015-May-23 02:33N 51°56' E 004°03'0 0.0
2015-May-23 01:33N 51°56' E 004°03'0 0.0
2015-May-23 00:33N 51°56' E 004°03'0 0.0
2015-May-22 23:33N 51°56' E 004°03'0 0.0
2015-May-22 22:33N 51°56' E 004°03'0 0.0
2015-May-22 21:33N 51°56' E 004°03'0 0.0
2015-May-22 20:33N 51°56' E 004°03'0 0.0
2015-May-22 19:33N 51°56' E 004°03'0 0.0
2015-May-22 18:33N 51°56' E 004°03'0 0.0
2015-May-22 17:33N 51°56' E 004°03'0 0.0
2015-May-22 16:33N 51°56' E 004°03'0 0.0
2015-May-22 15:33N 51°56' E 004°03'0 0.0
2015-May-22 14:33N 51°56' E 004°03'0 0.0
2015-May-22 13:33N 51°56' E 004°03'0 0.0
2015-May-22 12:33N 51°56' E 004°03'0 0.0
2015-May-22 11:33N 51°56' E 004°03'0 0.0
2015-May-22 10:33N 51°56' E 004°03'0 0.0
2015-May-22 09:33N 51°56' E 004°03'0 0.0
2015-May-22 08:33N 51°56' E 004°03'0 0.0
2015-May-22 07:33N 51°56' E 004°03'0 0.0
2015-May-22 06:33N 51°56' E 004°03'0 0.0
2015-May-22 05:33N 51°56' E 004°03'0 0.0
2015-May-22 04:33N 51°56' E 004°03'0 0.0
2015-May-22 03:33N 51°56' E 004°03'0 0.0
2015-May-22 02:33N 51°56' E 004°03'0 0.0
2015-May-22 01:33N 51°56' E 004°03'0 0.0
2015-May-22 00:33N 51°56' E 004°03'0 0.0
2015-May-21 23:33N 51°56' E 004°03'0 0.0
2015-May-21 22:33N 51°56' E 004°03'0 0.0
2015-May-21 21:33N 51°56' E 004°03'0 0.0
2015-May-21 20:33N 51°56' E 004°03'0 0.0
2015-May-21 19:33N 51°56' E 004°03'0 0.0
2015-May-21 18:33N 51°56' E 004°03'0 0.0
2015-May-21 17:33N 51°56' E 004°03'0 0.0
2015-May-21 16:33N 51°56' E 004°03'0 0.0
2015-May-21 15:33N 51°56' E 004°03'0 0.0
2015-May-21 14:30N 51°56' E 004°03'0 0.0
2015-May-21 13:33N 51°56' E 004°03'0 0.0
2015-May-21 12:33N 51°56' E 004°03'0 0.0
2015-May-21 11:33N 51°56' E 004°03'0 0.0
2015-May-21 10:33N 51°56' E 004°03'0 0.0
2015-May-21 09:33N 51°56' E 004°03'0 0.0
2015-May-21 08:33N 51°56' E 004°03'0 0.0
2015-May-21 07:33N 51°56' E 004°04'0 0.0
2015-May-21 06:33N 51°56' E 004°03'0 0.0
2015-May-21 05:33N 51°56' E 004°03'0 0.0
2015-May-21 04:33N 51°56' E 004°03'0 0.0
2015-May-21 03:33N 51°56' E 004°03'0 0.0
2015-May-21 02:33N 51°56' E 004°03'0 0.0
2015-May-21 01:33N 51°56' E 004°03'0 0.0
2015-May-21 00:33N 51°56' E 004°03'0 0.0
2015-May-20 23:33N 51°56' E 004°03'0 0.0
2015-May-20 22:33N 51°56' E 004°03'0 0.0
2015-May-20 21:33N 51°56' E 004°03'0 0.0
2015-May-20 20:33N 51°56' E 004°03'0 0.0
2015-May-20 19:33N 51°56' E 004°03'0 0.0
2015-May-20 18:30N 51°56' E 004°03'0 0.0
2015-May-20 17:33N 51°56' E 004°03'0 0.0
2015-May-20 16:33N 51°56' E 004°04'0 0.0
2015-May-20 11:31N 51°56' E 004°03'0 0.0
2015-May-20 10:31N 51°56' E 004°03'0 0.0
2015-May-20 09:31N 51°56' E 004°03'0 0.0
2015-May-20 08:31N 51°56' E 004°03'0 0.0
2015-May-20 07:31N 51°56' E 004°03'0 0.0
2015-May-20 06:31N 51°56' E 004°04'0 0.0
2015-May-20 05:31N 51°56' E 004°03'0 0.0
2015-May-20 04:31N 51°56' E 004°03'0 0.0
2015-May-20 03:31N 51°56' E 004°03'0 0.0
2015-May-20 02:31N 51°56' E 004°03'0 0.0
2015-May-20 01:31N 51°56' E 004°03'0 0.0
2015-May-20 00:31N 51°56' E 004°03'0 0.0
2015-May-19 23:31N 51°56' E 004°03'0 0.0
2015-May-19 22:31N 51°56' E 004°03'0 0.0
2015-May-19 21:31N 51°56' E 004°03'0 0.0
2015-May-19 20:31N 51°56' E 004°03'0 0.0
2015-May-19 19:31N 51°56' E 004°03'0 0.0
2015-May-19 18:31N 51°56' E 004°03'0 0.0
2015-May-19 17:31N 51°56' E 004°03'0 0.0
2015-May-19 16:31N 51°56' E 004°03'0 0.0
2015-May-19 15:31N 51°56' E 004°03'0 0.0
2015-May-19 14:31N 51°56' E 004°03'0 0.0
2015-May-19 13:28N 51°56' E 004°03'0 0.0
2015-May-19 12:31N 51°56' E 004°03'0 0.0
2015-May-19 11:31N 51°56' E 004°03'0 0.0
2015-May-19 10:31N 51°56' E 004°03'0 0.0
2015-May-19 09:31N 51°56' E 004°03'0 0.0
2015-May-19 08:31N 51°56' E 004°03'2 2.4
2015-May-19 07:33N 51°58' E 004°05'7 7.0
2015-May-19 06:33N 52°01' E 003°55'9 8.7
2015-May-19 05:33N 52°01' E 003°41'1110.0
2015-May-19 04:28N 51°59' E 003°23'40 2.1
2015-May-18 09:33N 51°40' E 002°27'8 7.5
2015-May-18 08:33N 51°34' E 002°19'8 7.1
2015-May-18 07:29N 51°29' E 002°11'7 7.5
2015-May-18 06:33N 51°24' E 002°03'8 7.9
2015-May-18 05:33N 51°18' E 001°55'9 8.5
2015-May-18 04:33N 51°11' E 001°46'9 9.2
2015-May-18 03:33N 51°03' E 001°39'1010.1
2015-May-18 02:33N 50°55' E 001°29'1010.4
2015-May-18 01:33N 50°45' E 001°23'11 9.7
2015-May-18 00:28N 50°37' E 001°13'3310.0
2015-May-17 21:12N 50°24' E 000°26'6810.0
2015-May-17 14:25N 50°06' W 001°17'6 5.6
2015-May-17 13:22N 50°05' W 001°26'  

Dump ship's entire track history